Terminal Aerodrome Forecast
Issued by NWS Bismarck, ND

Home | Current Version | Previous Version | Graphics & Text | Print | Product List | Glossary On
Versions: 1 2 3 4 5 6 7 8 9 10 11 12 13 14 15 16 17 18 19 20 21
000
FTUS43 KBIS 251508 AAB
TAFBIS
TAF AMD
KBIS 251508Z 2515/2612 28016KT P6SM SCT040
     FM251800 28012G20KT P6SM SCT140
     FM260700 20007KT P6SM SCT200=

USA.gov is the U.S. government's official web portal to all federal, state and local government web resources and services.